sensor_id;sensor_type;location;lat;lon;timestamp;pressure;altitude;pressure_sealevel;temperature;humidity
5879;BME280;2965;42.640;23.370;2022-11-11T05:02:36;95620.84;;;10.71;100.00
5879;BME280;2965;42.640;23.370;2022-11-11T05:05:22;95630.19;;;10.74;100.00
5879;BME280;2965;42.640;23.370;2022-11-11T05:07:47;95623.97;;;10.75;100.00
5879;BME280;2965;42.640;23.370;2022-11-11T05:10:31;95617.91;;;10.74;100.00
5879;BME280;2965;42.640;23.370;2022-11-11T05:12:56;95614.66;;;10.72;100.00
5879;BME280;2965;42.640;23.370;2022-11-11T05:15:42;95612.97;;;10.71;100.00
5879;BME280;2965;42.640;23.370;2022-11-11T05:18:26;95622.81;;;10.69;100.00
5879;BME280;2965;42.640;23.370;2022-11-11T05:21:20;95624.59;;;10.69;100.00
5879;BME280;2965;42.640;23.370;2022-11-11T05:23:46;95634.25;;;10.68;100.00
5879;BME280;2965;42.640;23.370;2022-11-11T05:26:30;95642.25;;;10.67;100.00
5879;BME280;2965;42.640;23.370;2022-11-11T05:28:56;95638.97;;;10.65;100.00
5879;BME280;2965;42.640;23.370;2022-11-11T05:31:21;95642.41;;;10.65;100.00
5879;BME280;2965;42.640;23.370;2022-11-11T05:33:46;95640.59;;;10.66;100.00
5879;BME280;2965;42.640;23.370;2022-11-11T05:36:12;95647.00;;;10.71;100.00
5879;BME280;2965;42.640;23.370;2022-11-11T05:38:37;95645.72;;;10.75;100.00
5879;BME280;2965;42.640;23.370;2022-11-11T05:41:02;95657.50;;;10.79;100.00
5879;BME280;2965;42.640;23.370;2022-11-11T05:43:28;95662.69;;;10.71;100.00
5879;BME280;2965;42.640;23.370;2022-11-11T05:45:53;95657.03;;;10.76;100.00
5879;BME280;2965;42.640;23.370;2022-11-11T05:48:19;95660.13;;;10.79;100.00
5879;BME280;2965;42.640;23.370;2022-11-11T05:50:44;95664.72;;;10.77;100.00
5879;BME280;2965;42.640;23.370;2022-11-11T05:53:09;95678.06;;;10.66;100.00
5879;BME280;2965;42.640;23.370;2022-11-11T05:55:35;95676.41;;;10.65;100.00
5879;BME280;2965;42.640;23.370;2022-11-11T05:58:00;95681.66;;;10.65;100.00
5879;BME280;2965;42.640;23.370;2022-11-11T06:00:25;95678.06;;;10.66;100.00
5879;BME280;2965;42.640;23.370;2022-11-11T06:02:51;95692.41;;;10.62;100.00
5879;BME280;2965;42.640;23.370;2022-11-11T06:05:16;95691.94;;;10.58;100.00
5879;BME280;2965;42.640;23.370;2022-11-11T06:07:41;95690.94;;;10.59;100.00
5879;BME280;2965;42.640;23.370;2022-11-11T06:10:08;95696.31;;;10.58;100.00
5879;BME280;2965;42.640;23.370;2022-11-11T06:12:52;95702.69;;;10.55;100.00
5879;BME280;2965;42.640;23.370;2022-11-11T06:15:29;95703.81;;;10.53;100.00
5879;BME280;2965;42.640;23.370;2022-11-11T06:17:54;95701.88;;;10.55;100.00
5879;BME280;2965;42.640;23.370;2022-11-11T06:20:20;95707.63;;;10.58;100.00
5879;BME280;2965;42.640;23.370;2022-11-11T06:22:45;95707.63;;;10.58;100.00
5879;BME280;2965;42.640;23.370;2022-11-11T06:25:28;95719.84;;;10.76;100.00
5879;BME280;2965;42.640;23.370;2022-11-11T06:28:13;95727.31;;;10.71;100.00
5879;BME280;2965;42.640;23.370;2022-11-11T06:30:39;95726.25;;;10.81;100.00
5879;BME280;2965;42.640;23.370;2022-11-11T06:33:05;95726.19;;;10.73;100.00
5879;BME280;2965;42.640;23.370;2022-11-11T06:35:38;95733.06;;;10.74;100.00
5879;BME280;2965;42.640;23.370;2022-11-11T06:38:05;95734.69;;;10.75;100.00
5879;BME280;2965;42.640;23.370;2022-11-11T06:40:31;95733.34;;;10.71;100.00
5879;BME280;2965;42.640;23.370;2022-11-11T06:42:57;95733.69;;;10.68;100.00
5879;BME280;2965;42.640;23.370;2022-11-11T06:45:24;95737.78;;;10.71;100.00
5879;BME280;2965;42.640;23.370;2022-11-11T06:47:50;95742.88;;;10.72;100.00
5879;BME280;2965;42.640;23.370;2022-11-11T06:50:16;95746.09;;;10.66;100.00
5879;BME280;2965;42.640;23.370;2022-11-11T06:52:42;95750.72;;;10.72;100.00
5879;BME280;2965;42.640;23.370;2022-11-11T06:55:07;95744.56;;;10.81;100.00
5879;BME280;2965;42.640;23.370;2022-11-11T06:57:33;95742.13;;;10.62;100.00
5879;BME280;2965;42.640;23.370;2022-11-11T06:59:58;95748.41;;;10.69;100.00
5879;BME280;2965;42.640;23.370;2022-11-11T07:02:24;95741.47;;;10.60;100.00
5879;BME280;2965;42.640;23.370;2022-11-11T07:04:49;95747.00;;;10.57;100.00
5879;BME280;2965;42.640;23.370;2022-11-11T07:07:14;95742.09;;;10.54;100.00
5879;BME280;2965;42.640;23.370;2022-11-11T07:09:41;95738.50;;;10.55;100.00
5879;BME280;2965;42.640;23.370;2022-11-11T07:12:07;95742.69;;;10.48;100.00
5879;BME280;2965;42.640;23.370;2022-11-11T07:14:32;95744.94;;;10.43;100.00
5879;BME280;2965;42.640;23.370;2022-11-11T07:16:58;95746.28;;;10.47;100.00
5879;BME280;2965;42.640;23.370;2022-11-11T07:19:23;95744.94;;;10.43;100.00
5879;BME280;2965;42.640;23.370;2022-11-11T07:21:49;95736.44;;;10.41;100.00
5879;BME280;2965;42.640;23.370;2022-11-11T07:24:14;95745.88;;;10.33;100.00
5879;BME280;2965;42.640;23.370;2022-11-11T07:26:39;95751.09;;;10.33;100.00
5879;BME280;2965;42.640;23.370;2022-11-11T07:29:06;95745.88;;;10.33;100.00
5879;BME280;2965;42.640;23.370;2022-11-11T07:31:32;95759.59;;;10.35;100.00
5879;BME280;2965;42.640;23.370;2022-11-11T07:33:57;95752.72;;;10.34;100.00
5879;BME280;2965;42.640;23.370;2022-11-11T07:36:23;95766.50;;;10.37;100.00
5879;BME280;2965;42.640;23.370;2022-11-11T07:38:49;95771.41;;;10.40;100.00
5879;BME280;2965;42.640;23.370;2022-11-11T07:41:14;95769.47;;;10.42;100.00
5879;BME280;2965;42.640;23.370;2022-11-11T07:43:39;95777.91;;;10.35;100.00
5879;BME280;2965;42.640;23.370;2022-11-11T07:46:05;95774.56;;;10.25;100.00
5879;BME280;2965;42.640;23.370;2022-11-11T07:48:30;95781.31;;;10.28;100.00
5879;BME280;2965;42.640;23.370;2022-11-11T07:50:55;95770.53;;;10.31;100.00
5879;BME280;2965;42.640;23.370;2022-11-11T07:53:22;95784.34;;;10.23;100.00
5879;BME280;2965;42.640;23.370;2022-11-11T07:55:47;95790.09;;;10.27;100.00
5879;BME280;2965;42.640;23.370;2022-11-11T07:58:13;95790.50;;;10.22;100.00
5879;BME280;2965;42.640;23.370;2022-11-11T08:00:38;95799.34;;;10.21;100.00
5879;BME280;2965;42.640;23.370;2022-11-11T08:03:03;95797.13;;;10.26;100.00
5879;BME280;2965;42.640;23.370;2022-11-11T08:05:29;95801.41;;;10.27;100.00
5879;BME280;2965;42.640;23.370;2022-11-11T08:07:54;95807.88;;;10.23;100.00
5879;BME280;2965;42.640;23.370;2022-11-11T08:10:20;95798.78;;;10.27;100.00
5879;BME280;2965;42.640;23.370;2022-11-11T08:12:46;95806.94;;;10.24;100.00
5879;BME280;2965;42.640;23.370;2022-11-11T08:15:36;95798.34;;;10.22;100.00
5879;BME280;2965;42.640;23.370;2022-11-11T08:18:01;95803.34;;;10.25;100.00
5879;BME280;2965;42.640;23.370;2022-11-11T08:20:26;95797.41;;;10.23;100.00
5879;BME280;2965;42.640;23.370;2022-11-11T08:22:52;95808.69;;;10.24;100.00
5879;BME280;2965;42.640;23.370;2022-11-11T08:25:19;95805.25;;;10.23;100.00
5879;BME280;2965;42.640;23.370;2022-11-11T08:27:44;95817.75;;;10.29;100.00
5879;BME280;2965;42.640;23.370;2022-11-11T08:30:10;95815.81;;;10.31;100.00
5879;BME280;2965;42.640;23.370;2022-11-11T08:32:35;95815.50;;;10.34;100.00
5879;BME280;2965;42.640;23.370;2022-11-11T08:35:01;95821.34;;;10.28;100.00
5879;BME280;2965;42.640;23.370;2022-11-11T08:37:27;95820.00;;;10.24;100.00
5879;BME280;2965;42.640;23.370;2022-11-11T08:39:52;95817.75;;;10.29;100.00
5879;BME280;2965;42.640;23.370;2022-11-11T08:42:18;95824.63;;;10.30;100.00
5879;BME280;2965;42.640;23.370;2022-11-11T08:44:43;95816.03;;;10.38;100.00
5879;BME280;2965;42.640;23.370;2022-11-11T08:47:09;95824.47;;;10.50;100.00
5879;BME280;2965;42.640;23.370;2022-11-11T08:49:34;95818.44;;;10.49;100.00
5879;BME280;2965;42.640;23.370;2022-11-11T08:52:00;95822.88;;;10.57;100.00
5879;BME280;2965;42.640;23.370;2022-11-11T08:54:26;95809.28;;;10.53;100.00
5879;BME280;2965;42.640;23.370;2022-11-11T08:56:51;95814.38;;;10.55;100.00
5879;BME280;2965;42.640;23.370;2022-11-11T08:59:16;95823.78;;;10.66;100.00
5879;BME280;2965;42.640;23.370;2022-11-11T09:01:42;95815.69;;;10.77;100.00
5879;BME280;2965;42.640;23.370;2022-11-11T09:04:07;95803.25;;;10.79;100.00
5879;BME280;2965;42.640;23.370;2022-11-11T09:06:32;95811.06;;;10.97;100.00
5879;BME280;2965;42.640;23.370;2022-11-11T09:08:58;95809.19;;;11.07;100.00
5879;BME280;2965;42.640;23.370;2022-11-11T09:11:23;95804.59;;;11.09;100.00
5879;BME280;2965;42.640;23.370;2022-11-11T09:13:48;95807.06;;;11.10;100.00
5879;BME280;2965;42.640;23.370;2022-11-11T09:16:14;95808.84;;;11.10;100.00
5879;BME280;2965;42.640;23.370;2022-11-11T09:18:39;95818.03;;;11.14;100.00
5879;BME280;2965;42.640;23.370;2022-11-11T09:21:05;95815.78;;;11.19;100.00
5879;BME280;2965;42.640;23.370;2022-11-11T09:23:31;95814.44;;;11.15;100.00
5879;BME280;2965;42.640;23.370;2022-11-11T09:25:59;95807.56;;;11.14;100.00
5879;BME280;2965;42.640;23.370;2022-11-11T09:28:28;95815.91;;;11.09;100.00
5879;BME280;2965;42.640;23.370;2022-11-11T09:30:54;95812.63;;;11.07;100.00
5879;BME280;2965;42.640;23.370;2022-11-11T09:33:19;95815.59;;;11.13;100.00
5879;BME280;2965;42.640;23.370;2022-11-11T09:35:45;95808.28;;;11.24;100.00
5879;BME280;2965;42.640;23.370;2022-11-11T09:38:10;95799.81;;;11.30;100.00
5879;BME280;2965;42.640;23.370;2022-11-11T09:41:17;95802.47;;;11.39;100.00
5879;BME280;2965;42.640;23.370;2022-11-11T09:43:53;95794.97;;;11.44;100.00
5879;BME280;2965;42.640;23.370;2022-11-11T09:46:30;95792.84;;;11.47;100.00
5879;BME280;2965;42.640;23.370;2022-11-11T09:51:55;95787.16;;;11.60;100.00
5879;BME280;2965;42.640;23.370;2022-11-11T09:54:53;95785.19;;;11.62;100.00
5879;BME280;2965;42.640;23.370;2022-11-11T09:57:35;95786.84;;;11.63;100.00
5879;BME280;2965;42.640;23.370;2022-11-11T10:00:06;95791.56;;;11.59;100.00
5879;BME280;2965;42.640;23.370;2022-11-11T10:02:53;95784.19;;;11.55;100.00
5879;BME280;2965;42.640;23.370;2022-11-11T10:05:40;95781.56;;;11.55;100.00
5879;BME280;2965;42.640;23.370;2022-11-11T10:08:16;95781.72;;;11.53;100.00
5879;BME280;2965;42.640;23.370;2022-11-11T10:10:48;95777.84;;;11.66;100.00
5879;BME280;2965;42.640;23.370;2022-11-11T10:13:35;95782.47;;;11.80;100.00
5879;BME280;2965;42.640;23.370;2022-11-11T10:22:21;95780.41;;;12.08;100.00
5879;BME280;2965;42.640;23.370;2022-11-11T10:24:40;95779.09;;;11.96;100.00
5879;BME280;2965;42.640;23.370;2022-11-11T10:27:14;95788.63;;;12.05;100.00
5879;BME280;2965;42.640;23.370;2022-11-11T10:29:42;95786.34;;;12.18;100.00
5879;BME280;2965;42.640;23.370;2022-11-11T10:32:17;95785.03;;;12.38;100.00
5879;BME280;2965;42.640;23.370;2022-11-11T10:34:44;95781.09;;;12.59;100.00
5879;BME280;2965;42.640;23.370;2022-11-11T10:37:27;95780.94;;;12.69;100.00
5879;BME280;2965;42.640;23.370;2022-11-11T10:40:16;95784.38;;;12.77;100.00
5879;BME280;2965;42.640;23.370;2022-11-11T10:42:43;95779.81;;;12.71;100.00
5879;BME280;2965;42.640;23.370;2022-11-11T10:52:59;95780.13;;;12.27;100.00
5879;BME280;2965;42.640;23.370;2022-11-11T10:58:13;95772.56;;;12.16;100.00
5879;BME280;2965;42.640;23.370;2022-11-11T11:00:40;95775.81;;;12.02;100.00
5879;BME280;2965;42.640;23.370;2022-11-11T11:03:24;95770.22;;;11.89;100.00
5879;BME280;2965;42.640;23.370;2022-11-11T11:08:39;95763.00;;;11.91;100.00
5879;BME280;2965;42.640;23.370;2022-11-11T11:11:15;95771.25;;;11.96;100.00
5879;BME280;2965;42.640;23.370;2022-11-11T11:13:50;95759.44;;;12.08;100.00
5879;BME280;2965;42.640;23.370;2022-11-11T11:16:31;95756.16;;;12.06;100.00
5879;BME280;2965;42.640;23.370;2022-11-11T11:19:33;95750.28;;;12.20;100.00
5879;BME280;2965;42.640;23.370;2022-11-11T11:22:00;95764.69;;;12.24;100.00
5879;BME280;2965;42.640;23.370;2022-11-11T11:24:31;95757.84;;;12.40;100.00
5879;BME280;2965;42.640;23.370;2022-11-11T11:26:59;95759.44;;;12.57;100.00
5879;BME280;2965;42.640;23.370;2022-11-11T11:29:28;95745.69;;;12.63;100.00
5879;BME280;2965;42.640;23.370;2022-11-11T11:31:54;95749.94;;;12.72;100.00
5879;BME280;2965;42.640;23.370;2022-11-11T11:34:20;95747.63;;;12.69;100.00
5879;BME280;2965;42.640;23.370;2022-11-11T11:36:58;95735.81;;;12.65;100.00
5879;BME280;2965;42.640;23.370;2022-11-11T11:39:35;95737.13;;;12.69;100.00
5879;BME280;2965;42.640;23.370;2022-11-11T11:42:01;95741.88;;;12.82;100.00
5879;BME280;2965;42.640;23.370;2022-11-11T11:44:33;95744.66;;;12.88;100.00
5879;BME280;2965;42.640;23.370;2022-11-11T11:55:21;95738.94;;;13.32;100.00
5879;BME280;2965;42.640;23.370;2022-11-11T12:00:23;95737.16;;;13.33;100.00
5879;BME280;2965;42.640;23.370;2022-11-11T12:05:40;95743.28;;;13.01;100.00
5879;BME280;2965;42.640;23.370;2022-11-11T12:13:33;95729.88;;;12.87;100.00
5879;BME280;2965;42.640;23.370;2022-11-11T12:16:18;95734.50;;;12.77;100.00
5879;BME280;2965;42.640;23.370;2022-11-11T12:19:00;95725.13;;;12.83;100.00
5879;BME280;2965;42.640;23.370;2022-11-11T12:24:49;95726.72;;;12.92;100.00
5879;BME280;2965;42.640;23.370;2022-11-11T12:27:32;95718.91;;;12.84;100.00
5879;BME280;2965;42.640;23.370;2022-11-11T12:30:20;95718.53;;;12.87;100.00
5879;BME280;2965;42.640;23.370;2022-11-11T12:32:58;95715.13;;;12.78;100.00
5879;BME280;2965;42.640;23.370;2022-11-11T12:46:34;95712.38;;;12.63;100.00
5879;BME280;2965;42.640;23.370;2022-11-11T13:15:33;95717.31;;;12.42;100.00
5879;BME280;2965;42.640;23.370;2022-11-11T13:17:59;95720.09;;;12.41;100.00
5879;BME280;2965;42.640;23.370;2022-11-11T13:23:07;95725.69;;;12.37;100.00
5879;BME280;2965;42.640;23.370;2022-11-11T13:25:34;95721.91;;;12.40;100.00
5879;BME280;2965;42.640;23.370;2022-11-11T13:28:35;95718.94;;;12.35;100.00
5879;BME280;2965;42.640;23.370;2022-11-11T13:30:58;95719.28;;;12.32;100.00
5879;BME280;2965;42.640;23.370;2022-11-11T13:33:38;95714.88;;;12.32;100.00
5879;BME280;2965;42.640;23.370;2022-11-11T13:36:07;95712.72;;;12.28;100.00
5879;BME280;2965;42.640;23.370;2022-11-11T13:41:04;95719.78;;;12.19;100.00
5879;BME280;2965;42.640;23.370;2022-11-11T13:46:00;95734.03;;;12.17;100.00
5879;BME280;2965;42.640;23.370;2022-11-11T13:48:35;95732.09;;;12.19;100.00
5879;BME280;2965;42.640;23.370;2022-11-11T13:51:33;95732.56;;;12.14;100.00
5879;BME280;2965;42.640;23.370;2022-11-11T13:54:00;95728.97;;;12.15;100.00
5879;BME280;2965;42.640;23.370;2022-11-11T13:56:39;95733.88;;;12.18;100.00
5879;BME280;2965;42.640;23.370;2022-11-11T13:59:07;95727.81;;;12.18;100.00
5879;BME280;2965;42.640;23.370;2022-11-11T14:01:40;95729.28;;;12.12;100.00
5879;BME280;2965;42.640;23.370;2022-11-11T14:04:06;95729.25;;;12.04;100.00
5879;BME280;2965;42.640;23.370;2022-11-11T14:08:57;95729.13;;;12.05;100.00
5879;BME280;2965;42.640;23.370;2022-11-11T14:13:49;95734.38;;;12.05;100.00
5879;BME280;2965;42.640;23.370;2022-11-11T14:21:53;95735.19;;;12.06;100.00
5879;BME280;2965;42.640;23.370;2022-11-11T14:24:30;95743.69;;;12.08;100.00
5879;BME280;2965;42.640;23.370;2022-11-11T14:27:00;95740.44;;;12.14;100.00
5879;BME280;2965;42.640;23.370;2022-11-11T14:29:31;95739.44;;;12.15;100.00
5879;BME280;2965;42.640;23.370;2022-11-11T14:34:51;95739.28;;;12.25;100.00
5879;BME280;2965;42.640;23.370;2022-11-11T14:37:59;95751.09;;;12.29;100.00
5879;BME280;2965;42.640;23.370;2022-11-11T14:40:29;95752.59;;;12.40;100.00
5879;BME280;2965;42.640;23.370;2022-11-11T14:42:56;95747.34;;;12.40;100.00
5879;BME280;2965;42.640;23.370;2022-11-11T14:47:47;95749.63;;;12.59;100.00
5879;BME280;2965;42.640;23.370;2022-11-11T14:50:41;95746.97;;;12.67;100.00
5879;BME280;2965;42.640;23.370;2022-11-11T14:53:18;95753.56;;;12.47;100.00
5879;BME280;2965;42.640;23.370;2022-11-11T14:55:50;95754.53;;;12.37;100.00
5879;BME280;2965;42.640;23.370;2022-11-11T14:58:19;95756.50;;;12.27;100.00
5879;BME280;2965;42.640;23.370;2022-11-11T15:01:02;95758.66;;;12.40;100.00
5879;BME280;2965;42.640;23.370;2022-11-11T15:03:41;95757.84;;;12.40;100.00
5879;BME280;2965;42.640;23.370;2022-11-11T15:13:54;95768.31;;;12.31;100.00
5879;BME280;2965;42.640;23.370;2022-11-11T15:24:29;95771.09;;;12.54;100.00
5879;BME280;2965;42.640;23.370;2022-11-11T15:37:33;95767.63;;;12.78;100.00
5879;BME280;2965;42.640;23.370;2022-11-11T15:39:59;95760.91;;;12.84;100.00
5879;BME280;2965;42.640;23.370;2022-11-11T15:42:39;95763.84;;;12.89;100.00
5879;BME280;2965;42.640;23.370;2022-11-11T15:45:20;95763.38;;;12.85;100.00
5879;BME280;2965;42.640;23.370;2022-11-11T15:47:47;95765.66;;;12.80;100.00
5879;BME280;2965;42.640;23.370;2022-11-11T15:50:26;95764.03;;;12.79;100.00
5879;BME280;2965;42.640;23.370;2022-11-11T15:52:54;95770.94;;;12.80;100.00
5879;BME280;2965;42.640;23.370;2022-11-11T15:57:50;95774.06;;;12.59;100.00
5879;BME280;2965;42.640;23.370;2022-11-11T16:00:27;95782.09;;;12.33;100.00
5879;BME280;2965;42.640;23.370;2022-11-11T16:02:53;95789.28;;;12.07;100.00
5879;BME280;2965;42.640;23.370;2022-11-11T16:05:25;95786.97;;;11.96;100.00
5879;BME280;2965;42.640;23.370;2022-11-11T16:07:56;95779.00;;;11.71;100.00
5879;BME280;2965;42.640;23.370;2022-11-11T16:10:36;95772.06;;;11.54;100.00
5879;BME280;2965;42.640;23.370;2022-11-11T16:13:07;95777.50;;;11.60;100.00
5879;BME280;2965;42.640;23.370;2022-11-11T16:15:47;95782.84;;;11.51;100.00
5879;BME280;2965;42.640;23.370;2022-11-11T16:18:25;95787.72;;;11.37;100.00
5879;BME280;2965;42.640;23.370;2022-11-11T16:21:02;95786.06;;;11.36;100.00
5879;BME280;2965;42.640;23.370;2022-11-11T16:23:29;95798.19;;;11.29;100.00
5879;BME280;2965;42.640;23.370;2022-11-11T16:25:57;95790.91;;;11.23;100.00
5879;BME280;2965;42.640;23.370;2022-11-11T16:28:23;95788.25;;;11.15;100.00
5879;BME280;2965;42.640;23.370;2022-11-11T16:30:48;95796.69;;;11.01;100.00
5879;BME280;2965;42.640;23.370;2022-11-11T16:35:51;95804.50;;;10.93;100.00
5879;BME280;2965;42.640;23.370;2022-11-11T16:38:31;95814.78;;;10.86;100.00
5879;BME280;2965;42.640;23.370;2022-11-11T16:40:57;95805.13;;;10.86;100.00
5879;BME280;2965;42.640;23.370;2022-11-11T16:51:36;95818.84;;;10.80;100.00
5879;BME280;2965;42.640;23.370;2022-11-11T16:54:11;95819.50;;;10.82;100.00
5879;BME280;2965;42.640;23.370;2022-11-11T16:56:42;95817.84;;;10.81;100.00
5879;BME280;2965;42.640;23.370;2022-11-11T16:59:20;95823.09;;;10.81;100.00
5879;BME280;2965;42.640;23.370;2022-11-11T17:01:47;95822.28;;;10.81;100.00
5879;BME280;2965;42.640;23.370;2022-11-11T17:04:13;95824.44;;;10.85;100.00
5879;BME280;2965;42.640;23.370;2022-11-11T17:06:54;95832.88;;;10.79;100.00
5879;BME280;2965;42.640;23.370;2022-11-11T17:09:38;95835.19;;;10.82;100.00
5879;BME280;2965;42.640;23.370;2022-11-11T17:12:05;95828.63;;;10.78;100.00
5879;BME280;2965;42.640;23.370;2022-11-11T17:14:35;95846.72;;;10.90;100.00
5879;BME280;2965;42.640;23.370;2022-11-11T17:17:03;95832.41;;;10.84;100.00
5879;BME280;2965;42.640;23.370;2022-11-11T17:19:30;95828.31;;;10.81;100.00
5879;BME280;2965;42.640;23.370;2022-11-11T17:22:07;95844.31;;;10.78;100.00
5879;BME280;2965;42.640;23.370;2022-11-11T17:24:33;95832.38;;;10.76;100.00
5879;BME280;2965;42.640;23.370;2022-11-11T17:26:58;95837.75;;;10.74;100.00
5879;BME280;2965;42.640;23.370;2022-11-11T17:31:53;95835.59;;;10.70;100.00
5879;BME280;2965;42.640;23.370;2022-11-11T17:34:18;95845.84;;;10.63;100.00
5879;BME280;2965;42.640;23.370;2022-11-11T17:36:43;95831.50;;;10.67;100.00
5879;BME280;2965;42.640;23.370;2022-11-11T17:39:09;95844.19;;;10.62;100.00
5879;BME280;2965;42.640;23.370;2022-11-11T17:41:34;95839.56;;;10.56;100.00
5879;BME280;2965;42.640;23.370;2022-11-11T17:43:59;95828.47;;;10.62;100.00
5879;BME280;2965;42.640;23.370;2022-11-11T17:46:25;95832.69;;;10.55;100.00
5879;BME280;2965;42.640;23.370;2022-11-11T17:48:54;95835.97;;;10.57;100.00
5879;BME280;2965;42.640;23.370;2022-11-11T17:51:23;95833.97;;;10.51;100.00
5879;BME280;2965;42.640;23.370;2022-11-11T17:53:50;95827.09;;;10.50;100.00
5879;BME280;2965;42.640;23.370;2022-11-11T17:56:16;95834.63;;;10.53;100.00
5879;BME280;2965;42.640;23.370;2022-11-11T18:01:16;95814.94;;;10.67;100.00
5879;BME280;2965;42.640;23.370;2022-11-11T18:03:41;95817.13;;;10.53;100.00
5879;BME280;2965;42.640;23.370;2022-11-11T18:06:08;95821.53;;;10.53;100.00
5879;BME280;2965;42.640;23.370;2022-11-11T18:08:33;95816.31;;;10.53;100.00
5879;BME280;2965;42.640;23.370;2022-11-11T18:11:00;95818.56;;;10.48;100.00
5879;BME280;2965;42.640;23.370;2022-11-11T18:13:26;95828.66;;;10.43;100.00
5879;BME280;2965;42.640;23.370;2022-11-11T18:15:51;95821.19;;;10.48;100.00
5879;BME280;2965;42.640;23.370;2022-11-11T18:18:17;95825.44;;;10.49;100.00
5879;BME280;2965;42.640;23.370;2022-11-11T18:20:42;95824.41;;;10.42;100.00
5879;BME280;2965;42.640;23.370;2022-11-11T18:23:08;95826.72;;;10.45;100.00
5879;BME280;2965;42.640;23.370;2022-11-11T18:25:33;95822.09;;;10.39;100.00
5879;BME280;2965;42.640;23.370;2022-11-11T18:27:58;95832.09;;;10.43;100.00
5879;BME280;2965;42.640;23.370;2022-11-11T18:30:24;95823.28;;;10.44;100.00
5879;BME280;2965;42.640;23.370;2022-11-11T18:32:49;95829.63;;;10.42;100.00
5879;BME280;2965;42.640;23.370;2022-11-11T18:35:14;95832.25;;;10.42;100.00
5879;BME280;2965;42.640;23.370;2022-11-11T18:37:42;95836.75;;;10.31;100.00
5879;BME280;2965;42.640;23.370;2022-11-11T18:40:08;95840.31;;;10.30;100.00
5879;BME280;2965;42.640;23.370;2022-11-11T18:45:03;95846.06;;;10.34;100.00
5879;BME280;2965;42.640;23.370;2022-11-11T18:47:28;95843.63;;;10.32;100.00
5879;BME280;2965;42.640;23.370;2022-11-11T18:49:54;95851.16;;;10.35;100.00
5879;BME280;2965;42.640;23.370;2022-11-11T18:52:19;95847.13;;;10.41;100.00
5879;BME280;2965;42.640;23.370;2022-11-11T18:54:44;95850.50;;;10.33;100.00
5879;BME280;2965;42.640;23.370;2022-11-11T18:57:10;95852.44;;;10.31;100.00
5879;BME280;2965;42.640;23.370;2022-11-11T18:59:35;95848.75;;;10.24;100.00
5879;BME280;2965;42.640;23.370;2022-11-11T19:02:01;95842.81;;;10.22;100.00
5879;BME280;2965;42.640;23.370;2022-11-11T19:04:26;95848.75;;;10.24;100.00
5879;BME280;2965;42.640;23.370;2022-11-11T19:06:52;95849.03;;;10.21;100.00
5879;BME280;2965;42.640;23.370;2022-11-11T19:09:17;95846.41;;;10.21;100.00
5879;BME280;2965;42.640;23.370;2022-11-11T19:11:45;95838.44;;;10.23;100.00
5879;BME280;2965;42.640;23.370;2022-11-11T19:14:12;95844.78;;;10.20;100.00
5879;BME280;2965;42.640;23.370;2022-11-11T19:16:38;95851.63;;;10.21;100.00
5879;BME280;2965;42.640;23.370;2022-11-11T19:19:04;95854.25;;;10.21;100.00
5879;BME280;2965;42.640;23.370;2022-11-11T19:21:32;95854.16;;;10.13;100.00
5879;BME280;2965;42.640;23.370;2022-11-11T19:23:58;95842.34;;;10.09;100.00
5879;BME280;2965;42.640;23.370;2022-11-11T19:26:26;95841.03;;;10.05;100.00
5879;BME280;2965;42.640;23.370;2022-11-11T19:28:52;95843.56;;;9.97;100.00
5879;BME280;2965;42.640;23.370;2022-11-11T19:31:23;95856.53;;;9.89;100.00
5879;BME280;2965;42.640;23.370;2022-11-11T19:33:49;95857.06;;;9.92;100.00
5879;BME280;2965;42.640;23.370;2022-11-11T19:36:17;95857.09;;;9.82;100.00
5879;BME280;2965;42.640;23.370;2022-11-11T19:38:44;95860.88;;;9.98;100.00
5879;BME280;2965;42.640;23.370;2022-11-11T19:41:11;95860.56;;;9.83;100.00
5879;BME280;2965;42.640;23.370;2022-11-11T19:43:37;95856.91;;;9.94;100.00
5879;BME280;2965;42.640;23.370;2022-11-11T19:46:05;95852.47;;;9.76;100.00
5879;BME280;2965;42.640;23.370;2022-11-11T19:48:31;95851.81;;;9.74;100.00
5879;BME280;2965;42.640;23.370;2022-11-11T19:51:02;95855.19;;;9.84;100.00
5879;BME280;2965;42.640;23.370;2022-11-11T19:53:27;95845.72;;;10.01;100.00
5879;BME280;2965;42.640;23.370;2022-11-11T19:56:00;95852.06;;;9.99;100.00
5879;BME280;2965;42.640;23.370;2022-11-11T19:58:26;95850.81;;;10.03;100.00
5879;BME280;2965;42.640;23.370;2022-11-11T20:00:52;95862.56;;;9.89;100.00
5879;BME280;2965;42.640;23.370;2022-11-11T20:03:18;95854.91;;;9.88;100.00
5879;BME280;2965;42.640;23.370;2022-11-11T20:05:43;95865.34;;;9.88;100.00
5879;BME280;2965;42.640;23.370;2022-11-11T20:08:08;95870.84;;;9.84;100.00
5879;BME280;2965;42.640;23.370;2022-11-11T20:10:35;95873.19;;;9.88;100.00
5879;BME280;2965;42.640;23.370;2022-11-11T20:13:01;95867.56;;;9.82;100.00
5879;BME280;2965;42.640;23.370;2022-11-11T20:15:26;95866.50;;;9.75;100.00
5879;BME280;2965;42.640;23.370;2022-11-11T20:17:52;95870.28;;;9.63;100.00
5879;BME280;2965;42.640;23.370;2022-11-11T20:20:17;95873.75;;;9.54;100.00
5879;BME280;2965;42.640;23.370;2022-11-11T20:22:42;95879.41;;;9.49;100.00
5879;BME280;2965;42.640;23.370;2022-11-11T20:25:08;95876.47;;;9.62;100.00
5879;BME280;2965;42.640;23.370;2022-11-11T20:27:34;95885.06;;;9.72;100.00
5879;BME280;2965;42.640;23.370;2022-11-11T20:30:00;95875.31;;;9.74;100.00
5879;BME280;2965;42.640;23.370;2022-11-11T20:32:26;95884.91;;;9.83;100.00
5879;BME280;2965;42.640;23.370;2022-11-11T20:34:51;95880.53;;;9.74;100.00
5879;BME280;2965;42.640;23.370;2022-11-11T20:37:17;95884.69;;;9.67;100.00
5879;BME280;2965;42.640;23.370;2022-11-11T20:39:42;95891.66;;;9.49;100.00
5879;BME280;2965;42.640;23.370;2022-11-11T20:42:07;95874.78;;;9.33;100.00
5879;BME280;2965;42.640;23.370;2022-11-11T20:44:33;95879.59;;;9.28;100.00
5879;BME280;2965;42.640;23.370;2022-11-11T20:46:58;95877.16;;;9.27;100.00
5879;BME280;2965;42.640;23.370;2022-11-11T20:49:23;95879.91;;;9.16;100.00